Latest Weather Observations for Dum In Mirrie

IDD60901

Issued at 3:41 pm CST Friday 27 February 2015 (issued every 10 minutes, with the page automatically refreshed every 10 minutes)

About weather observations | Map of Darwin area stations | Latest observations for Darwin area | Other Formats
Station Details ID: 014277 Name: DUM IN MIRRIE AIRSTRIP Lat: -12.63 Lon: 130.37 Height: 3.5 m
Data from the previous 72 hours. | See also: Recent months at Dum In Mirrie
Date/Time
CST
Tmp

°C
App
Tmp
°C
Dew
Point
°C
Rel
Hum
%
Delta-T

°C
Wind Press
QNH
hPa
Press
MSL
hPa
Rain
since
9 am
mm
Dir
 
Spd
km/h
Gust
km/h
Spd
kts
Gust
kts
27/03:30pm 29.4 32.1 24.7 76 3.3 W 19 28 10 15 1004.7 1004.7 0.0
27/03:00pm 30.4 36.0 25.7 76 3.3 WSW 7 17 4 9 1004.8 1004.8 0.0
27/02:30pm 30.4 35.5 25.5 75 3.5 WSW 9 19 5 10 1005.0 1005.0 0.0
27/02:00pm 31.6 36.0 26.2 73 3.9 W 15 22 8 12 1005.5 1005.5 0.0
27/01:30pm 31.2 34.7 25.5 71 4.0 WSW 17 24 9 13 1005.9 1005.9 0.0
27/01:00pm 31.4 34.9 25.5 71 4.2 W 17 24 9 13 1006.2 1006.2 0.0
27/12:30pm 31.6 36.4 25.7 71 4.2 W 11 17 6 9 1006.9 1006.9 0.0
27/12:00pm 31.1 34.6 25.4 71 4.0 W 17 22 9 12 1007.5 1007.5 0.0
27/11:30am 31.6 36.5 25.9 72 4.1 W 11 20 6 11 1007.8 1007.8 0.0
27/11:00am 30.8 35.0 25.4 73 3.8 W 13 19 7 10 1007.8 1007.8 0.0
27/10:30am 30.8 36.3 25.6 74 3.7 W 7 15 4 8 1007.8 1007.8 0.0
27/10:00am 30.1 34.8 24.9 73 3.6 W 9 17 5 9 1007.8 1007.8 0.0
27/09:30am 30.1 35.0 25.2 75 3.5 W 9 15 5 8 1007.8 1007.8 0.0
27/09:00am 30.1 35.5 25.4 76 3.3 W 7 13 4 7 1007.8 1007.8 0.0
27/08:30am 29.8 35.2 25.5 78 3.0 W 7 15 4 8 1007.4 1007.4 0.0
27/08:00am 29.6 34.6 25.4 78 3.0 WSW 9 19 5 10 1006.8 1006.8 0.0
27/07:30am 29.1 33.7 25.3 80 2.7 W 11 19 6 10 1006.1 1006.1 0.0
27/07:00am 29.0 32.9 25.4 81 2.5 W 15 22 8 12 1005.6 1005.6 0.0
27/06:30am 28.8 34.7 25.4 82 2.4 SW 4 9 2 5 1005.9 1005.9 0.0
27/06:00am 28.8 34.2 25.4 82 2.4 W 7 15 4 8 1005.5 1005.5 0.0
27/05:30am 28.8 34.1 25.2 81 2.5 W 7 15 4 8 1005.7 1005.7 0.0
27/05:00am 28.8 33.8 25.4 82 2.4 W 9 15 5 8 1005.3 1005.3 0.0
27/04:30am 28.6 34.0 25.2 82 2.4 WNW 6 11 3 6 1005.1 1005.1 0.0
27/04:00am 28.7 34.0 24.9 80 2.7 WNW 6 9 3 5 1005.5 1005.5 0.0
27/03:30am 28.8 33.9 24.6 78 2.9 WNW 6 9 3 5 1005.6 1005.6 0.0
27/03:00am 28.9 33.7 24.5 77 3.1 WNW 7 17 4 9 1005.7 1005.7 0.0
27/02:30am 29.0 34.3 25.2 80 2.7 WNW 7 13 4 7 1006.0 1006.0 0.0
27/02:00am 29.0 34.3 25.2 80 2.7 WNW 7 13 4 7 1006.5 1006.5 0.0
27/01:30am 29.1 34.2 24.9 78 2.9 WNW 7 15 4 8 1007.2 1007.2 0.0
27/01:00am 29.0 34.4 25.2 80 2.7 WNW 6 13 3 7 1007.8 1007.8 0.0
27/12:30am 29.1 34.2 24.9 78 2.9 WNW 7 13 4 7 1007.8 1007.8 0.0
27/12:00am 29.2 33.9 25.0 78 3.0 WNW 9 19 5 10 1007.6 1007.6 0.0
 
Date/Time
CST
Tmp

°C
App
Tmp
°C
Dew
Point
°C
Rel
Hum
%
Delta-T

°C
Wind Press
QNH
hPa
Press
MSL
hPa
Rain
since
9 am
mm
Dir
 
Spd
km/h
Gust
km/h
Spd
kts
Gust
kts
26/11:30pm 29.2 34.0 24.5 76 3.3 WNW 7 17 4 9 1008.0 1008.0 0.0
26/11:00pm 29.2 34.3 25.0 78 2.9 NW 7 17 4 9 1008.5 1008.5 0.0
26/10:30pm 29.2 33.8 24.7 77 3.1 NW 9 15 5 8 1008.2 1008.2 0.0
26/10:00pm 29.1 34.0 24.7 77 3.1 WNW 7 15 4 8 1007.5 1007.5 0.0
26/09:30pm 29.1 33.5 24.4 76 3.3 NW 9 17 5 9 1007.0 1007.0 0.0
26/09:00pm 29.2 33.8 24.7 77 3.1 WNW 9 17 5 9 1007.0 1007.0 0.0
26/08:30pm 29.2 33.4 24.7 77 3.1 WNW 11 19 6 10 1006.5 1006.5 0.0
26/08:00pm 29.2 33.9 25.0 78 2.9 WNW 9 17 5 9 1006.2 1006.2 0.0
26/07:30pm 29.1 33.5 24.4 76 3.3 NW 9 17 5 9 1006.0 1006.0 0.0
26/07:00pm 29.3 34.1 25.1 78 2.9 WNW 9 17 5 9 1005.9 1005.9 0.0
26/06:30pm 29.5 34.5 24.8 76 3.3 WNW 7 13 4 7 1005.6 1005.6 0.0
26/06:00pm 29.7 34.4 25.0 76 3.3 WNW 9 17 5 9 1005.3 1005.3 0.0
26/05:30pm 30.1 35.0 25.2 75 3.5 WNW 9 19 5 10 1004.8 1004.8 0.0
26/05:00pm 30.8 35.7 25.8 74 3.6 W 11 19 6 10 1005.1 1005.1 0.0
26/04:30pm 30.5 34.9 25.1 73 3.8 W 11 19 6 10 1004.8 1004.8 0.0
26/04:00pm 30.3 35.1 25.1 73 3.7 W 9 15 5 8 1005.2 1005.2 0.0
26/03:30pm 31.3 36.4 25.6 71 4.1 W 9 17 5 9 1005.2 1005.2 0.0
26/03:00pm 31.0 35.7 25.6 73 3.8 W 11 20 6 11 1005.0 1005.0 0.0
26/02:30pm 30.9 36.3 25.5 73 3.8 W 7 15 4 8 1005.5 1005.5 0.0
26/02:00pm 31.1 36.4 25.2 71 4.2 W 7 13 4 7 1005.8 1005.8 0.0
26/01:30pm 30.8 35.1 24.9 71 4.2 W 11 19 6 10 1006.5 1006.5 0.0
26/01:00pm 31.7 36.5 25.1 68 4.7 W 9 17 5 9 1006.8 1006.8 0.0
26/12:30pm 31.2 35.4 24.8 69 4.5 W 11 17 6 9 1007.4 1007.4 0.0
26/12:00pm 31.3 37.0 25.9 73 3.9 WSW 7 11 4 6 1007.9 1007.9 0.0
26/11:30am 30.9 35.3 24.5 68 4.5 W 9 13 5 7 1008.2 1008.2 0.0
26/11:00am 30.6 36.6 26.1 77 3.2 WSW 6 9 3 5 1008.3 1008.3 0.0
26/10:30am 30.1 35.7 25.4 76 3.3 WSW 6 9 3 5 1008.3 1008.3 0.0
26/10:00am 30.1 35.9 25.8 78 3.1 SW 6 7 3 4 1008.5 1008.5 0.0
26/09:30am 29.5 35.1 25.5 79 2.8 SW 6 9 3 5 1008.7 1008.7 0.0
26/09:00am 28.9 35.6 25.9 84 2.1 SSE 2 4 1 2 1008.6 1008.6 0.0
26/08:30am 28.0 35.1 26.0 89 1.4 CALM 0 2 0 1 1008.3 1008.3 0.0
26/08:00am 26.6 33.9 26.3 98 0.2 CALM 0 0 0 0 1007.8 1007.8 0.0
26/07:30am 25.4 31.9 25.1 98 0.2 CALM 0 0 0 0 1007.4 1007.4 0.0
26/07:00am 24.7 30.8 24.4 98 0.2 CALM 0 0 0 0 1007.3 1007.3 0.0
26/06:30am 24.9 31.1 24.6 98 0.2 CALM 0 0 0 0 1007.4 1007.4 0.0
26/06:00am 24.8 30.9 24.5 98 0.2 CALM 0 0 0 0 1007.1 1007.1 0.0
26/05:30am 24.7 30.5 24.0 96 0.5 CALM 0 0 0 0 1006.9 1006.9 0.0
26/05:00am 24.8 30.7 24.1 96 0.5 CALM 0 0 0 0 1006.7 1006.7 0.0
26/04:30am 25.4 31.5 24.5 95 0.6 CALM 0 0 0 0 1006.7 1006.7 0.0
26/04:00am 25.7 31.2 24.7 94 0.7 ESE 4 6 2 3 1006.6 1006.6 0.0
26/03:30am 25.9 31.5 24.9 94 0.7 ESE 4 6 2 3 1006.8 1006.8 0.0
26/03:00am 26.2 31.9 25.0 93 0.8 SE 4 7 2 4 1006.9 1006.9 0.0
26/02:30am 26.6 32.2 25.4 93 0.8 SSE 6 9 3 5 1007.0 1007.0 0.0
26/02:00am 26.7 32.6 25.3 92 1.0 SE 4 9 2 5 1007.0 1007.0 0.0
26/01:30am 27.0 32.8 25.2 90 1.3 SE 4 7 2 4 1007.4 1007.4 0.0
26/01:00am 27.5 32.9 25.1 87 1.7 SSE 6 9 3 5 1007.6 1007.6 0.0
26/12:30am 28.6 33.7 25.0 81 2.5 WSW 7 15 4 8 1007.7 1007.7 0.0
26/12:00am 28.6 34.2 24.8 80 2.7 WSW 4 9 2 5 1008.0 1008.0 0.0
 
Date/Time
CST
Tmp

°C
App
Tmp
°C
Dew
Point
°C
Rel
Hum
%
Delta-T

°C
Wind Press
QNH
hPa
Press
MSL
hPa
Rain
since
9 am
mm
Dir
 
Spd
km/h
Gust
km/h
Spd
kts
Gust
kts
25/11:30pm 28.5 34.0 24.7 80 2.7 SW 4 11 2 6 1008.3 1008.3 0.0
25/11:00pm 28.5 33.4 24.3 78 2.9 WSW 6 11 3 6 1008.3 1008.3 0.0
25/10:30pm 28.4 33.5 24.6 80 2.7 SW 6 11 3 6 1008.3 1008.3 0.0
25/10:00pm 28.4 32.8 24.4 79 2.8 SW 9 15 5 8 1008.4 1008.4 0.0
25/09:30pm 28.5 32.8 24.3 78 2.9 SW 9 17 5 9 1008.5 1008.5 0.0
25/09:00pm 28.5 32.1 24.3 78 2.9 SW 13 19 7 10 1008.5 1008.5 0.0
25/08:30pm 27.7 33.0 24.3 82 2.4 SSW 4 9 2 5 1008.3 1008.3 0.0
25/08:00pm 27.8 32.5 24.0 80 2.6 S 6 9 3 5 1008.1 1008.1 0.0
25/07:30pm 27.9 32.9 23.9 79 2.8 S 4 9 2 5 1008.0 1008.0 0.0
25/07:00pm 28.0 32.3 23.6 77 3.0 SSW 7 13 4 7 1007.6 1007.6 0.0
25/06:30pm 28.2 31.7 23.6 76 3.2 SSW 11 19 6 10 1007.5 1007.5 0.0
25/06:00pm 28.2 31.8 24.4 80 2.6 SW 13 19 7 10 1006.9 1006.9 0.0
25/05:30pm 28.5 32.6 24.5 79 2.8 SW 11 17 6 9 1006.6 1006.6 0.0
25/05:00pm 29.2 33.8 24.7 77 3.1 SW 9 20 5 11 1006.3 1006.3 0.0
25/04:30pm 30.4 35.4 24.8 72 3.9 SW 7 19 4 10 1006.3 1006.3 0.0
25/04:00pm 29.1 32.4 23.8 73 3.7 WSW 13 24 7 13 1006.5 1006.5 0.0
25/03:30pm 29.1 31.8 24.7 77 3.1 W 19 26 10 14 1006.5 1006.5 0.0
25/03:00pm 28.8 31.0 23.9 75 3.4 W 19 28 10 15 1006.8 1006.8 0.0
25/02:30pm 28.2 31.2 24.6 81 2.5 W 17 30 9 16 1007.0 1007.0 0.0
25/02:00pm 28.9 32.8 24.2 76 3.3 W 11 24 6 13 1007.2 1007.2 0.0
25/01:30pm 28.2 31.2 24.0 78 2.9 W 15 22 8 12 1007.9 1007.9 0.0
25/01:00pm 28.1 30.4 24.1 79 2.8 WSW 19 28 10 15 1009.0 1009.0 0.0
25/12:30pm 27.6 29.8 24.0 81 2.5 W 19 28 10 15 1009.4 1009.4 0.0
25/12:00pm 26.9 31.1 23.4 81 2.4 SW 7 15 4 8 1010.3 1010.3 0.0
25/11:30am 26.3 29.2 23.8 86 1.7 W 15 24 8 13 1010.6 1010.6 0.0
25/11:00am 26.2 29.0 23.7 86 1.7 WNW 15 28 8 15 1010.7 1010.7 0.0
25/10:30am 28.4 32.8 23.8 76 3.2 W 7 19 4 10 1010.7 1010.7 0.0
25/10:00am 30.0 35.8 25.1 75 3.4 SW 4 6 2 3 1010.1 1010.1 0.0
25/09:30am 29.9 35.6 25.6 78 3.0 SW 6 9 3 5 1009.9 1009.9 0.0
25/09:00am 29.4 34.8 25.4 79 2.8 SW 7 11 4 6 1010.0 1010.0 0.0
25/08:30am 29.2 34.8 25.4 80 2.7 SW 6 13 3 7 1009.5 1009.5 0.0
25/08:00am 28.9 34.3 25.1 80 2.7 WSW 6 13 3 7 1009.5 1009.5 0.0
25/07:30am 28.8 34.4 24.8 79 2.8 WSW 4 9 2 5 1009.4 1009.4 0.0
25/07:00am 28.7 34.1 24.5 78 2.9 W 4 9 2 5 1009.3 1009.3 0.0
25/06:30am 28.7 33.7 24.5 78 2.9 W 6 13 3 7 1008.9 1008.9 0.0
25/06:00am 28.5 33.2 24.3 78 2.9 W 7 13 4 7 1008.1 1008.1 0.0
25/05:30am 28.6 33.6 24.8 80 2.7 W 7 15 4 8 1007.7 1007.7 0.0
25/05:00am 27.9 33.7 25.1 85 2.0 WNW 4 7 2 4 1007.8 1007.8 0.0
25/04:30am 28.1 34.5 25.5 86 1.8 NW 2 4 1 2 1007.8 1007.8 0.0
25/04:00am 28.4 33.7 25.0 82 2.4 W 6 9 3 5 1007.4 1007.4 0.0
25/03:30am 28.7 33.4 25.5 83 2.3 WNW 11 19 6 10 1007.0 1007.0 0.0
25/03:00am 28.1 33.6 24.7 82 2.4 NW 4 9 2 5 1008.0 1008.0 0.0
25/02:30am 26.9 32.5 24.9 89 1.4 NNW 4 6 2 3 1008.1 1008.1 0.0
25/02:00am 27.2 33.3 25.0 88 1.5 NNW 2 6 1 3 1008.7 1008.7 0.0
25/01:30am 27.4 33.7 25.4 89 1.4 N 2 4 1 2 1009.2 1009.2 0.0
25/01:00am 28.0 34.7 25.4 86 1.8 CALM 0 0 0 0 1009.7 1009.7 0.0
25/12:30am 28.2 33.9 25.0 83 2.2 NNW 4 6 2 3 1010.1 1010.1 0.0
25/12:00am 28.5 33.9 24.5 79 2.8 NW 4 7 2 4 1010.4 1010.4 0.0
 
Date/Time
CST
Tmp

°C
App
Tmp
°C
Dew
Point
°C
Rel
Hum
%
Delta-T

°C
Wind Press
QNH
hPa
Press
MSL
hPa
Rain
since
9 am
mm
Dir
 
Spd
km/h
Gust
km/h
Spd
kts
Gust
kts
24/11:30pm 28.6 34.1 24.6 79 2.8 NW 4 7 2 4 1010.4 1010.4 0.0
24/11:00pm 28.7 34.5 24.5 78 2.9 NW 2 7 1 4 1010.4 1010.4 0.0
24/10:30pm 28.8 33.6 24.1 76 3.3 NW 6 9 3 5 1010.0 1010.0 0.0
24/10:00pm 28.9 33.7 24.2 76 3.3 WNW 6 9 3 5 1009.3 1009.3 0.0
24/09:30pm 28.9 33.7 24.2 76 3.3 WNW 6 9 3 5 1009.6 1009.6 0.0
24/09:00pm 29.2 34.1 24.3 75 3.4 W 6 9 3 5 1010.2 1010.2 0.0
24/08:30pm 29.2 34.1 24.3 75 3.4 W 6 11 3 6 1010.0 1010.0 0.0
24/08:00pm 29.2 34.0 24.5 76 3.3 WSW 7 13 4 7 1009.4 1009.4 0.0
24/07:30pm 29.1 34.4 24.4 76 3.3 WSW 4 9 2 5 1008.9 1008.9 0.0
24/07:00pm 29.2 33.9 24.3 75 3.4 WSW 7 15 4 8 1008.5 1008.5 0.0
24/06:30pm 29.3 33.6 24.2 74 3.5 WSW 9 19 5 10 1008.0 1008.0 0.0
24/06:00pm 29.4 34.0 24.7 76 3.3 W 9 19 5 10 1007.8 1007.8 0.0
24/05:30pm 29.7 34.7 24.8 75 3.4 WSW 7 15 4 8 1007.4 1007.4 0.0
24/05:00pm 30.0 34.9 25.3 76 3.3 WSW 9 17 5 9 1007.4 1007.4 0.0
24/04:30pm 30.1 35.5 25.2 75 3.5 WSW 6 11 3 6 1007.4 1007.4 0.0
24/04:00pm 29.8 34.7 25.3 77 3.2 W 9 15 5 8 1007.6 1007.6 0.0

Latest Capital City Observations: Canberra | Sydney | Melbourne | Brisbane | Adelaide | Perth | Hobart | Darwin

Other Formats:

Comma delimited format used in spreadsheet applications
http://www.bom.gov.au/fwo/IDD60901/IDD60901.94116.axf

JavaScript Object Notation format (JSON) in row-major order
http://www.bom.gov.au/fwo/IDD60901/IDD60901.94116.json